Time;durP1;ratioP1;P1;durP2;ratioP2;P2;SDS_P1;SDS_P2;PMS_P1;PMS_P2;Temp;Humidity;BMP_temperature;BMP_pressure;BME280_temperature;BME280_humidity;BME280_pressure;Samples;Min_cycle;Max_cycle;Signal;HPM_P1;HPM_P2
2021/06/23 09:44:40;;;;;;;2.40;0.98;;;;;;;25.07;53.60;99106.22;5136609;27;20188;-77
2021/06/23 09:47:07;;;;;;;1.73;1.20;;;;;;;24.82;52.33;99104.31;5129907;28;20448;-77
2021/06/23 09:49:43;;;;;;;0.98;0.80;;;;;;;24.80;52.59;99106.56;5111661;28;20044;-77
2021/06/23 09:52:12;;;;;;;0.98;0.90;;;;;;;24.58;52.30;99106.00;5122142;28;20047;-78
2021/06/23 09:54:49;;;;;;;1.73;0.90;;;;;;;25.41;51.67;99105.59;5118824;28;20138;-77
2021/06/23 09:57:18;;;;;;;1.52;0.85;;;;;;;25.45;51.60;99103.06;5109918;28;20548;-77
2021/06/23 09:59:49;;;;;;;0.60;0.60;;;;;;;25.86;48.98;99096.44;5124981;28;20055;-77
2021/06/23 10:02:24;;;;;;;0.90;0.80;;;;;;;26.29;48.40;99086.44;5129564;28;20043;-77
2021/06/23 10:04:51;;;;;;;0.98;0.93;;;;;;;26.67;46.34;99083.88;5118616;28;20059;-77
2021/06/23 10:07:43;;;;;;;1.20;1.10;;;;;;;26.71;47.10;99098.09;5109571;28;20036;-77
2021/06/23 10:10:12;;;;;;;1.05;0.90;;;;;;;27.01;46.23;99084.97;5119611;28;20477;-77
2021/06/23 10:12:39;;;;;;;1.42;1.00;;;;;;;27.53;45.58;99087.97;5109116;28;20051;-78
2021/06/23 10:15:08;;;;;;;1.98;1.08;;;;;;;27.59;46.43;99077.59;5115100;28;20043;-77
2021/06/23 10:17:37;;;;;;;4.68;0.60;;;;;;;27.57;46.43;99077.88;5129016;28;20124;-77
2021/06/23 10:20:05;;;;;;;2.70;0.80;;;;;;;27.23;45.08;99075.22;5128014;28;20055;-78
2021/06/23 10:22:33;;;;;;;3.00;0.90;;;;;;;27.18;45.01;99076.94;5108703;28;20051;-78
2021/06/23 10:25:04;;;;;;;1.25;0.50;;;;;;;27.04;45.49;99076.00;5108742;28;20120;-78
2021/06/23 10:27:33;;;;;;;1.05;0.80;;;;;;;27.12;47.19;99078.13;5119929;28;20105;-78
2021/06/23 10:30:02;;;;;;;1.38;0.80;;;;;;;27.48;43.35;99074.94;5108592;28;20054;-78
2021/06/23 10:32:30;;;;;;;3.40;0.80;;;;;;;27.32;44.34;99071.47;5111837;28;20494;-78
2021/06/23 10:34:56;;;;;;;1.15;0.90;;;;;;;27.63;43.61;99071.09;5128891;27;20430;-78
2021/06/23 10:37:24;;;;;;;1.20;0.77;;;;;;;27.47;45.03;99067.66;5129004;28;20048;-78
2021/06/23 10:39:52;;;;;;;0.80;0.70;;;;;;;27.61;43.10;99064.16;5128154;27;20047;-78
2021/06/23 10:42:23;;;;;;;0.50;0.50;;;;;;;27.37;41.84;99056.66;5128644;28;20490;-79
2021/06/23 10:44:54;;;;;;;0.60;0.60;;;;;;;27.59;39.47;99058.84;5124826;28;20073;-78
2021/06/23 10:47:33;;;;;;;0.63;0.50;;;;;;;27.89;41.70;99056.75;5128927;28;20083;-78
2021/06/23 10:50:01;;;;;;;1.08;0.80;;;;;;;28.18;43.13;99056.63;5118421;28;20063;-78
2021/06/23 10:52:32;;;;;;;0.60;0.60;;;;;;;27.41;44.53;99054.09;5108183;28;20487;-78
2021/06/23 10:55:00;;;;;;;1.17;0.70;;;;;;;26.78;45.13;99058.69;5100630;28;20052;-78
2021/06/23 10:57:29;;;;;;;5.38;1.00;;;;;;;26.61;43.28;99064.69;5095708;28;20105;-78
2021/06/23 10:59:57;;;;;;;1.08;0.63;;;;;;;26.65;43.71;99057.41;5094831;28;20043;-78
2021/06/23 11:02:34;;;;;;;0.80;0.80;;;;;;;27.15;43.48;99058.00;5096227;28;20477;-78
2021/06/23 11:05:12;;;;;;;1.90;1.00;;;;;;;26.76;44.32;99063.75;5114714;28;20052;-78
2021/06/23 11:07:41;;;;;;;0.85;0.70;;;;;;;26.65;42.58;99063.81;5114444;28;20134;-78
2021/06/23 11:10:21;;;;;;;1.30;0.68;;;;;;;26.92;41.03;99054.09;5095660;28;20059;-78
2021/06/23 11:12:49;;;;;;;1.92;1.05;;;;;;;27.71;40.71;99050.88;5094609;28;20086;-78
2021/06/23 11:15:18;;;;;;;1.08;0.75;;;;;;;27.93;39.14;99056.97;5112371;28;20051;-78
2021/06/23 11:17:48;;;;;;;1.90;0.82;;;;;;;27.78;40.91;99052.47;5114415;28;20108;-78
2021/06/23 11:20:33;;;;;;;;;;;;;;;28.15;40.46;99050.81;5102397;28;20105;-78
2021/06/23 11:23:00;;;;;;;5.70;0.60;;;;;;;28.05;39.81;99047.03;5094222;28;19920;-78
2021/06/23 11:25:37;;;;;;;0.70;0.70;;;;;;;27.68;38.62;99045.88;5104123;28;20047;-78
2021/06/23 11:28:26;;;;;;;0.90;0.50;;;;;;;28.14;38.68;99049.97;5114178;28;20047;-78
2021/06/23 11:31:03;;;;;;;1.02;0.65;;;;;;;28.32;39.70;99053.88;5103033;28;20261;-79
2021/06/23 11:33:57;;;;;;;1.15;0.65;;;;;;;27.73;39.89;99033.81;5093714;28;20048;-79
2021/06/23 11:36:24;;;;;;;0.80;0.55;;;;;;;27.42;39.44;99042.63;5101475;28;20044;-78
2021/06/23 11:38:54;;;;;;;0.47;0.45;;;;;;;27.30;41.88;99047.78;5114169;28;20398;-78
2021/06/23 11:41:21;;;;;;;0.47;0.47;;;;;;;27.70;43.60;99049.22;5108650;28;20101;-79
2021/06/23 11:43:49;;;;;;;1.58;0.73;;;;;;;28.47;38.17;99054.72;5084892;28;20045;-79
2021/06/23 11:46:16;;;;;;;1.42;0.60;;;;;;;28.34;39.79;99053.56;5087049;28;20406;-80
2021/06/23 11:48:43;;;;;;;0.57;0.50;;;;;;;28.06;40.26;99054.31;5113665;28;20104;-78
2021/06/23 11:51:12;;;;;;;0.95;0.50;;;;;;;27.82;43.15;99048.78;5113821;28;20047;-76
2021/06/23 11:53:39;;;;;;;0.65;0.65;;;;;;;28.51;41.68;99044.59;5093070;28;20465;-78
2021/06/23 11:56:08;;;;;;;2.47;0.80;;;;;;;28.18;40.13;99039.88;5093063;28;20070;-79
2021/06/23 11:58:35;;;;;;;1.10;0.70;;;;;;;27.55;43.49;99032.66;5112409;28;20561;-78
2021/06/23 12:01:01;;;;;;;1.48;0.65;;;;;;;27.24;41.56;99043.41;5113704;28;20254;-78
2021/06/23 12:03:28;;;;;;;0.40;0.40;;;;;;;27.26;41.34;99041.13;5100765;28;20043;-78
2021/06/23 12:05:55;;;;;;;1.45;0.77;;;;;;;27.19;41.23;99039.53;5100122;28;20044;-78
2021/06/23 12:08:25;;;;;;;0.80;0.80;;;;;;;26.81;43.12;99036.66;5113455;28;20054;-78
2021/06/23 12:10:52;;;;;;;0.52;0.52;;;;;;;27.88;42.60;99021.56;5110247;28;20055;-78
2021/06/23 12:13:19;;;;;;;1.75;0.60;;;;;;;28.64;41.04;99023.44;5092863;28;20054;-78
2021/06/23 12:15:45;;;;;;;0.90;0.70;;;;;;;28.64;37.96;99017.84;5092133;28;20052;-78
2021/06/23 12:18:12;;;;;;;0.70;0.70;;;;;;;28.64;37.74;98995.47;5093101;28;20073;-79
2021/06/23 12:20:41;;;;;;;0.60;0.60;;;;;;;28.95;39.55;99021.69;5092999;28;20090;-79
2021/06/23 12:23:10;;;;;;;0.57;0.57;;;;;;;29.05;37.35;99022.63;5103089;28;20101;-79
2021/06/23 12:25:40;;;;;;;2.63;1.15;;;;;;;28.18;40.66;99011.06;5112932;28;20047;-83
2021/06/23 12:28:10;;;;;;;2.97;0.90;;;;;;;27.66;43.48;99020.22;5103137;28;20051;-79
2021/06/23 12:30:38;;;;;;;0.85;0.80;;;;;;;27.50;43.47;99024.38;5092992;28;20051;-79
2021/06/23 12:33:08;;;;;;;1.33;0.93;;;;;;;27.36;43.88;99025.09;5098752;28;20048;-77
2021/06/23 12:35:35;;;;;;;3.83;1.20;;;;;;;27.78;44.46;99003.03;5112729;28;20058;-78
2021/06/23 12:38:02;;;;;;;2.50;1.17;;;;;;;28.83;41.74;99013.00;5112885;28;20055;-78
2021/06/23 12:40:30;;;;;;;4.53;1.00;;;;;;;29.28;39.05;99004.81;5112591;28;20067;-78
2021/06/23 12:42:58;;;;;;;4.30;1.23;;;;;;;29.89;39.53;99006.56;5110305;28;20044;-79
2021/06/23 12:45:45;;;;;;;1.45;1.10;;;;;;;28.60;41.53;99018.47;5087374;28;20044;-79
2021/06/23 12:48:12;;;;;;;1.50;1.10;;;;;;;28.34;41.47;99020.03;5091262;28;20055;-78
2021/06/23 12:50:39;;;;;;;1.27;1.00;;;;;;;28.07;42.79;99021.59;5096567;28;20047;-78
2021/06/23 12:53:06;;;;;;;1.25;0.90;;;;;;;27.69;42.19;99021.59;5111987;28;20058;-79
2021/06/23 12:55:33;;;;;;;0.73;0.70;;;;;;;27.44;43.36;99008.84;5103762;28;20209;-78
2021/06/23 12:58:01;;;;;;;1.10;0.90;;;;;;;27.11;44.13;99006.69;5092339;28;20407;-78
2021/06/23 13:00:30;;;;;;;0.88;0.88;;;;;;;26.62;46.39;99010.63;5097936;28;20051;-78
2021/06/23 13:02:57;;;;;;;2.70;1.20;;;;;;;26.38;48.48;99014.19;5112591;28;20513;-78
2021/06/23 13:05:23;;;;;;;1.40;1.30;;;;;;;25.62;50.06;99016.41;5111986;28;20055;-77
2021/06/23 13:07:50;;;;;;;4.88;2.22;;;;;;;25.67;51.35;99021.97;5111746;28;20482;-78
2021/06/23 13:10:19;;;;;;;1.58;1.30;;;;;;;25.48;51.42;99032.09;5112259;28;20117;-79
2021/06/23 13:12:46;;;;;;;1.73;1.42;;;;;;;25.38;53.07;99036.59;5111858;28;20460;-78
2021/06/23 13:15:18;;;;;;;2.42;1.10;;;;;;;25.48;52.58;99035.69;5110362;28;20048;-78
2021/06/23 13:17:45;;;;;;;2.97;1.40;;;;;;;25.22;53.26;99016.31;5102960;28;20062;-78
2021/06/23 13:20:13;;;;;;;2.20;1.25;;;;;;;25.26;53.55;99025.78;5092008;28;20051;-78
2021/06/23 13:22:40;;;;;;;5.30;2.30;;;;;;;25.09;54.08;99005.81;5096332;28;20055;-78
2021/06/23 13:25:07;;;;;;;3.75;1.55;;;;;;;24.98;55.19;99001.44;5111609;28;20055;-78
2021/06/23 13:27:34;;;;;;;2.50;1.50;;;;;;;24.79;56.11;99012.31;5111643;28;20053;-79
2021/06/23 13:30:01;;;;;;;1.73;1.40;;;;;;;24.60;57.13;99004.59;5095158;28;20052;-80
2021/06/23 13:32:29;;;;;;;1.50;1.40;;;;;;;24.51;57.01;99020.13;5087122;28;20073;-80
2021/06/23 13:34:56;;;;;;;1.65;1.50;;;;;;;24.24;57.61;99020.44;5086555;28;20039;-82
2021/06/23 13:37:23;;;;;;;5.22;1.95;;;;;;;24.14;58.08;99046.28;5111202;28;20055;-77
2021/06/23 13:39:50;;;;;;;4.53;1.55;;;;;;;23.82;58.90;99047.34;5096610;28;20051;-78
2021/06/23 13:42:16;;;;;;;2.50;1.70;;;;;;;23.85;59.01;99035.72;5111578;28;20493;-78
2021/06/23 13:44:43;;;;;;;5.72;1.70;;;;;;;23.78;59.15;99040.66;5110564;28;20051;-77
2021/06/23 13:47:10;;;;;;;3.90;2.00;;;;;;;23.82;59.22;99039.00;5106992;28;20070;-77
2021/06/23 13:49:38;;;;;;;1.42;1.33;;;;;;;23.76;59.62;99034.56;5109989;28;20039;-78
2021/06/23 13:52:06;;;;;;;4.05;1.60;;;;;;;23.56;60.56;99050.06;5102016;28;20051;-77
2021/06/23 13:54:34;;;;;;;1.70;1.60;;;;;;;23.56;60.77;99050.06;5089892;28;20052;-78
2021/06/23 13:57:00;;;;;;;5.53;2.00;;;;;;;23.46;61.26;99055.56;5096035;28;20040;-78
2021/06/23 13:59:27;;;;;;;2.30;1.85;;;;;;;23.23;62.81;99066.03;5111025;28;20069;-78
2021/06/23 14:01:54;;;;;;;3.05;1.60;;;;;;;23.23;63.60;99068.81;5108108;28;20044;-78
2021/06/23 14:04:21;;;;;;;6.35;1.63;;;;;;;23.15;64.23;99053.53;5090692;28;20052;-78
2021/06/23 14:06:49;;;;;;;2.63;2.03;;;;;;;22.71;66.78;99062.09;5082199;28;20052;-78
2021/06/23 14:09:16;;;;;;;5.78;2.50;;;;;;;22.35;69.07;99058.25;5073707;28;20419;-79
2021/06/23 14:11:43;;;;;;;7.65;2.65;;;;;;;22.27;71.38;99051.25;5110766;28;20082;-77
2021/06/23 14:14:10;;;;;;;10.43;3.20;;;;;;;22.29;74.67;99037.97;5091860;28;20048;-76
2021/06/23 14:16:36;;;;;;;9.00;2.85;;;;;;;22.25;75.98;99031.28;5090748;28;20048;-76
2021/06/23 14:19:04;;;;;;;9.70;3.13;;;;;;;22.23;76.19;99012.16;5107549;28;20048;-76
2021/06/23 14:21:31;;;;;;;14.18;3.83;;;;;;;22.32;76.11;99001.47;5110672;28;20391;-76
2021/06/23 14:24:00;;;;;;;7.35;3.30;;;;;;;22.32;75.84;99009.75;5093025;28;20055;-77
2021/06/23 14:26:27;;;;;;;11.50;3.10;;;;;;;22.12;76.24;98993.00;5090407;28;20259;-76
2021/06/23 14:28:53;;;;;;;6.60;4.22;;;;;;;22.05;76.83;98987.66;5092164;28;20060;-75
2021/06/23 14:31:20;;;;;;;10.93;2.92;;;;;;;22.20;77.71;98982.22;5094620;28;20052;-76
2021/06/23 14:33:47;;;;;;;5.22;2.85;;;;;;;22.42;77.34;98997.94;5098136;28;20040;-76
2021/06/23 14:36:14;;;;;;;12.10;2.65;;;;;;;22.39;77.16;98991.00;5114312;28;20048;-77
2021/06/23 14:38:41;;;;;;;5.40;2.95;;;;;;;22.39;75.97;98987.41;5098719;28;20048;-76
2021/06/23 14:41:09;;;;;;;6.90;3.05;;;;;;;22.25;75.47;99003.59;5085949;28;20052;-76
2021/06/23 14:43:36;;;;;;;3.38;2.90;;;;;;;22.04;75.58;98986.84;5093546;28;20054;-77
2021/06/23 14:46:04;;;;;;;3.40;2.42;;;;;;;21.91;75.94;98965.97;5095602;28;20079;-76
2021/06/23 14:48:32;;;;;;;2.97;2.67;;;;;;;21.89;75.34;98970.94;5105023;28;20108;-77
2021/06/23 14:50:59;;;;;;;6.88;3.30;;;;;;;21.95;75.74;98971.81;5111147;28;20130;-76
2021/06/23 14:53:26;;;;;;;4.95;2.85;;;;;;;22.04;73.14;98961.06;5113299;28;20443;-76
2021/06/23 14:55:53;;;;;;;8.88;3.22;;;;;;;22.16;71.77;98972.81;5112273;28;20047;-76
2021/06/23 14:58:21;;;;;;;5.00;3.13;;;;;;;22.22;71.43;98977.28;5093507;28;20496;-77
2021/06/23 15:00:48;;;;;;;5.75;2.80;;;;;;;22.23;70.72;98959.56;5093355;28;20415;-78
2021/06/23 15:03:15;;;;;;;4.53;3.03;;;;;;;22.37;72.00;98982.13;5101002;28;20044;-77
2021/06/23 15:05:42;;;;;;;3.13;2.83;;;;;;;22.32;73.89;98979.31;5092315;28;20483;-76
2021/06/23 15:08:08;;;;;;;4.53;3.08;;;;;;;22.49;75.37;98962.50;5101869;28;20427;-76
2021/06/23 15:10:35;;;;;;;3.72;3.40;;;;;;;22.60;75.77;98968.97;5113594;28;20051;-78
2021/06/23 15:13:03;;;;;;;6.43;3.45;;;;;;;22.60;78.22;98985.59;5111714;28;20051;-77
2021/06/23 15:15:32;;;;;;;10.27;3.60;;;;;;;22.29;79.34;98977.03;5112624;28;20134;-76
2021/06/23 15:18:00;;;;;;;5.03;3.38;;;;;;;22.25;79.17;98984.19;5113612;28;20059;-77
2021/06/23 15:20:27;;;;;;;6.85;3.75;;;;;;;22.03;80.05;98989.88;5093731;28;20510;-77
2021/06/23 15:22:53;;;;;;;4.40;3.28;;;;;;;21.98;81.28;98998.13;5092537;28;20066;-77
2021/06/23 15:25:20;;;;;;;4.78;3.67;;;;;;;22.08;80.33;98984.38;5104471;28;20047;-77
2021/06/23 15:27:47;;;;;;;6.78;3.78;;;;;;;21.80;81.78;98969.75;5113622;28;20490;-76
2021/06/23 15:30:15;;;;;;;6.00;3.65;;;;;;;21.87;81.47;98991.66;5109861;28;20148;-76
2021/06/23 15:32:43;;;;;;;6.57;4.43;;;;;;;21.76;81.53;98987.97;5092960;28;20148;-77
2021/06/23 15:35:11;;;;;;;4.32;3.90;;;;;;;21.77;82.16;98980.50;5092311;28;20051;-76
2021/06/23 15:37:38;;;;;;;5.05;3.90;;;;;;;21.64;81.94;98956.88;5071543;28;20111;-77
2021/06/23 15:40:06;;;;;;;5.38;3.78;;;;;;;21.59;80.96;98956.81;5072256;28;20480;-76
2021/06/23 15:42:34;;;;;;;4.88;4.38;;;;;;;21.50;80.77;98943.50;5109949;28;20048;-76
2021/06/23 15:45:01;;;;;;;6.45;4.60;;;;;;;21.34;79.98;98933.34;5112922;28;20059;-77
2021/06/23 15:47:28;;;;;;;7.13;4.90;;;;;;;21.31;79.98;98942.16;5102470;28;20505;-77
2021/06/23 15:49:59;;;;;;;8.85;4.70;;;;;;;21.14;80.72;98933.97;5092815;28;20401;-77
2021/06/23 15:52:28;;;;;;;6.95;4.57;;;;;;;21.31;80.75;98953.22;5095941;28;20499;-77
2021/06/23 15:54:57;;;;;;;5.20;4.70;;;;;;;21.31;81.43;98950.44;5112255;28;20131;-77
2021/06/23 15:57:24;;;;;;;7.35;4.72;;;;;;;21.21;81.75;98931.81;5110036;28;20507;-78
2021/06/23 15:59:51;;;;;;;8.75;5.32;;;;;;;21.21;81.51;98929.06;5092499;28;20044;-78
2021/06/23 16:02:17;;;;;;;9.40;5.03;;;;;;;21.22;81.27;98920.50;5092316;28;20048;-77
2021/06/23 16:04:44;;;;;;;8.13;5.00;;;;;;;21.20;80.44;98931.00;5110390;28;20105;-78
2021/06/23 16:07:13;;;;;;;8.55;4.90;;;;;;;21.13;80.89;98927.59;5112317;28;20495;-77
2021/06/23 16:09:40;;;;;;;9.15;6.15;;;;;;;21.10;79.58;98914.28;5111895;28;20039;-77
2021/06/23 16:12:08;;;;;;;5.72;4.80;;;;;;;21.15;79.49;98919.03;5111904;28;20406;-78
2021/06/23 16:14:36;;;;;;;10.68;5.85;;;;;;;21.04;80.46;98918.94;5111246;28;20044;-77
2021/06/23 16:17:02;;;;;;;7.25;5.57;;;;;;;20.99;80.77;98907.00;5112372;28;20131;-77
2021/06/23 16:19:29;;;;;;;8.02;5.88;;;;;;;21.09;81.21;98940.28;5103135;28;20056;-77
2021/06/23 16:21:58;;;;;;;9.77;5.72;;;;;;;21.13;80.90;98946.13;5091103;28;20048;-77
2021/06/23 16:24:30;;;;;;;8.48;5.32;;;;;;;21.13;81.36;98926.75;5092854;28;20051;-77
2021/06/23 16:26:57;;;;;;;7.47;5.05;;;;;;;21.05;81.73;98911.50;5071311;28;20526;-77
2021/06/23 16:29:24;;;;;;;6.10;5.25;;;;;;;21.03;82.07;98909.00;5070990;28;20056;-77
2021/06/23 16:31:51;;;;;;;6.43;5.38;;;;;;;20.91;81.63;98938.69;5089056;28;20047;-78
2021/06/23 16:34:18;;;;;;;5.07;4.65;;;;;;;20.91;80.83;98951.66;5091021;28;20052;-77
2021/06/23 16:36:45;;;;;;;5.00;4.50;;;;;;;20.87;81.25;98943.06;5091579;28;20051;-77
2021/06/23 16:39:12;;;;;;;9.80;4.60;;;;;;;20.77;80.73;98941.00;5091147;28;20048;-77
2021/06/23 16:41:42;;;;;;;8.10;4.38;;;;;;;20.95;79.36;98959.16;5092561;28;20166;-77
2021/06/23 16:44:09;;;;;;;5.88;4.32;;;;;;;20.85;80.22;98957.13;5087761;28;20121;-76
2021/06/23 16:46:38;;;;;;;5.57;4.70;;;;;;;20.86;79.59;98942.19;5094515;28;20069;-76
2021/06/23 16:49:06;;;;;;;5.45;4.40;;;;;;;20.99;79.21;98941.00;5111619;28;20421;-76
2021/06/23 16:51:33;;;;;;;7.55;4.88;;;;;;;20.95;79.07;98939.00;5111508;28;20117;-76
2021/06/23 16:54:00;;;;;;;5.32;4.80;;;;;;;20.86;79.39;98946.91;5092978;28;20055;-76
2021/06/23 16:56:27;;;;;;;5.28;4.70;;;;;;;20.89;78.96;98962.97;5091131;28;20052;-76
2021/06/23 16:58:55;;;;;;;6.50;4.50;;;;;;;20.81;79.16;98969.78;5089704;28;20048;-76
2021/06/23 17:01:22;;;;;;;10.52;4.55;;;;;;;20.76;79.63;98983.53;5079654;28;20048;-76
2021/06/23 17:03:49;;;;;;;7.13;4.93;;;;;;;20.93;79.37;98997.28;5099359;28;20051;-77
2021/06/23 17:06:16;;;;;;;6.72;4.82;;;;;;;20.91;80.33;98995.88;5095003;28;20051;-77
2021/06/23 17:08:44;;;;;;;7.35;4.78;;;;;;;20.82;80.09;99001.84;5097911;28;20251;-77
2021/06/23 17:11:11;;;;;;;5.88;4.88;;;;;;;20.77;80.50;99010.06;5111600;28;20048;-77
2021/06/23 17:13:39;;;;;;;9.88;7.60;;;;;;;20.68;81.11;99008.81;5109836;28;20047;-77
2021/06/23 17:16:07;;;;;;;8.90;5.57;;;;;;;20.48;80.89;98995.53;5110236;28;20051;-77
2021/06/23 17:18:34;;;;;;;9.88;5.25;;;;;;;20.39;81.06;98997.06;5095296;28;20059;-77
2021/06/23 17:21:01;;;;;;;7.10;5.20;;;;;;;20.40;82.57;99021.66;5106489;28;20048;-77
2021/06/23 17:23:28;;;;;;;7.30;5.75;;;;;;;20.32;82.26;99002.75;5110230;28;20442;-78
2021/06/23 17:25:55;;;;;;;6.60;5.75;;;;;;;20.39;83.86;99014.47;5102899;28;20058;-78
2021/06/23 17:28:22;;;;;;;9.55;5.95;;;;;;;20.29;83.94;99008.78;5091547;28;20044;-78
2021/06/23 17:30:50;;;;;;;6.13;5.53;;;;;;;20.23;86.20;99007.03;5093622;28;20048;-78
2021/06/23 17:33:18;;;;;;;9.55;6.65;;;;;;;20.24;87.70;99011.47;5111721;28;20508;-79
2021/06/23 17:35:45;;;;;;;8.52;6.57;;;;;;;20.21;88.50;99015.56;5110939;28;20059;-79
2021/06/23 17:38:12;;;;;;;11.57;7.00;;;;;;;20.13;89.90;99002.19;5111078;28;20045;-80
2021/06/23 17:40:39;;;;;;;10.38;6.63;;;;;;;20.24;89.66;99025.28;5111068;28;20632;-81
2021/06/23 17:43:06;;;;;;;9.25;6.55;;;;;;;20.05;90.15;99005.38;5094614;28;20051;-81
2021/06/23 17:45:34;;;;;;;8.48;7.13;;;;;;;20.03;91.19;99013.91;5091011;28;20048;-82
2021/06/23 17:48:01;;;;;;;9.48;6.20;;;;;;;20.00;90.57;98989.56;5091156;28;20058;-83
2021/06/23 17:50:31;;;;;;;7.93;7.13;;;;;;;19.97;91.10;98990.06;5091249;28;20051;-83
2021/06/23 17:52:59;;;;;;;;;;;;;;;19.91;94.82;99002.09;5098556;28;20479;-83
2021/06/23 17:55:31;;;;;;;9.20;7.13;;;;;;;19.78;97.19;99006.00;5110551;28;19924;-83
2021/06/23 17:57:59;;;;;;;9.82;7.13;;;;;;;19.76;97.88;99002.66;5095927;28;20047;-83
2021/06/23 18:00:27;;;;;;;12.73;7.85;;;;;;;19.74;97.14;99004.84;5075762;28;20055;-83
2021/06/23 18:02:54;;;;;;;9.43;7.20;;;;;;;19.76;95.70;98997.13;5077425;28;20044;-83
2021/06/23 18:05:21;;;;;;;9.80;7.95;;;;;;;19.77;95.01;98988.63;5092928;28;20051;-83
2021/06/23 18:07:50;;;;;;;12.88;8.40;;;;;;;19.55;96.51;98971.13;5094767;28;20050;-83
2021/06/23 18:10:17;;;;;;;14.55;8.35;;;;;;;19.51;97.35;98965.28;5111899;28;20097;-83
2021/06/23 18:12:44;;;;;;;26.35;8.13;;;;;;;19.36;97.02;98959.47;5115789;28;20086;-81
2021/06/23 18:15:12;;;;;;;12.43;8.50;;;;;;;19.24;98.38;98954.00;5101957;28;20052;-81
2021/06/23 18:17:39;;;;;;;16.23;9.00;;;;;;;19.04;98.04;98944.28;5095135;28;20534;-80
2021/06/23 18:20:07;;;;;;;9.85;7.43;;;;;;;18.95;94.07;98939.41;5103551;28;20051;-81
2021/06/23 18:22:34;;;;;;;8.85;7.70;;;;;;;18.84;95.53;98908.06;5114742;28;20066;-81
2021/06/23 18:25:05;;;;;;;12.00;6.80;;;;;;;18.92;92.78;98932.47;5114639;28;20051;-82
2021/06/23 18:27:33;;;;;;;8.32;6.47;;;;;;;18.95;90.73;98934.72;5114922;28;20469;-81
2021/06/23 18:30:00;;;;;;;9.68;6.68;;;;;;;19.00;90.99;98942.25;5106901;28;20047;-79
2021/06/23 18:32:30;;;;;;;15.55;6.97;;;;;;;19.17;86.50;98928.53;5109951;28;20056;-80
2021/06/23 18:34:57;;;;;;;10.35;7.57;;;;;;;19.16;93.16;98937.88;5114775;28;20062;-79
2021/06/23 18:37:24;;;;;;;11.73;9.20;;;;;;;19.18;96.31;98947.59;5099112;28;20048;-79
2021/06/23 18:39:52;;;;;;;16.77;8.80;;;;;;;19.01;98.00;98935.66;5094472;28;20460;-80
2021/06/23 18:42:20;;;;;;;13.80;8.20;;;;;;;18.81;99.21;98922.31;5095251;28;20044;-80
2021/06/23 18:44:47;;;;;;;11.57;8.23;;;;;;;18.96;98.38;98925.38;5093696;28;20048;-79
2021/06/23 18:47:15;;;;;;;10.77;8.63;;;;;;;19.00;99.71;98928.47;5100463;28;20414;-80
2021/06/23 18:49:41;;;;;;;16.00;10.10;;;;;;;18.99;100.00;98908.38;5114538;28;20071;-79
2021/06/23 18:52:09;;;;;;;16.67;9.88;;;;;;;19.00;98.95;98900.94;5109312;28;20052;-80
2021/06/23 18:54:36;;;;;;;11.85;8.57;;;;;;;19.01;98.36;98919.97;5093537;28;20063;-80
2021/06/23 18:57:03;;;;;;;12.05;8.77;;;;;;;19.04;97.10;98905.69;5094155;28;20046;-79
2021/06/23 18:59:32;;;;;;;17.17;8.82;;;;;;;18.99;96.86;98886.34;5093962;28;20070;-79
2021/06/23 19:01:59;;;;;;;15.95;9.07;;;;;;;19.01;98.36;98891.59;5093907;28;20044;-80
2021/06/23 19:04:26;;;;;;;12.05;9.07;;;;;;;18.91;98.24;98884.00;5111027;28;20057;-79
2021/06/23 19:06:52;;;;;;;10.95;9.23;;;;;;;18.83;98.81;98896.19;5113722;28;20050;-79
2021/06/23 19:09:20;;;;;;;11.18;9.30;;;;;;;18.96;99.76;98888.75;5097097;28;20554;-80
2021/06/23 19:11:47;;;;;;;13.13;9.02;;;;;;;18.90;98.42;98885.88;5092891;28;20551;-79
2021/06/23 19:14:15;;;;;;;10.93;8.55;;;;;;;18.91;98.08;98887.56;5106908;28;20051;-79
2021/06/23 19:16:44;;;;;;;14.55;9.32;;;;;;;18.87;97.53;98874.53;5113524;28;20403;-79
2021/06/23 19:19:11;;;;;;;12.80;9.45;;;;;;;18.80;98.02;98877.38;5106907;28;20047;-79
2021/06/23 19:21:39;;;;;;;12.95;8.85;;;;;;;18.87;97.50;98867.09;5082522;28;20488;-79
2021/06/23 19:24:06;;;;;;;13.75;9.65;;;;;;;18.62;98.31;98842.63;5081510;28;20039;-79
2021/06/23 19:26:33;;;;;;;12.20;9.32;;;;;;;18.57;99.87;98845.28;5113421;28;20044;-80
2021/06/23 19:29:01;;;;;;;12.73;9.75;;;;;;;18.69;99.67;98872.78;5110697;28;20483;-79
2021/06/23 19:31:28;;;;;;;14.93;9.60;;;;;;;18.62;100.00;98881.16;5092854;28;20052;-80
2021/06/23 19:34:01;;;;;;;11.50;9.65;;;;;;;18.70;100.00;98896.50;5092347;28;20054;-79
2021/06/23 19:36:28;;;;;;;12.73;9.05;;;;;;;18.63;100.00;98876.53;5104777;28;20368;-79
2021/06/23 19:38:55;;;;;;;12.35;9.23;;;;;;;18.58;100.00;98856.06;5113734;28;20503;-79
2021/06/23 19:41:22;;;;;;;12.88;9.57;;;;;;;18.56;100.00;98855.47;5099914;28;20051;-79
2021/06/23 19:43:49;;;;;;;13.77;10.05;;;;;;;18.65;100.00;98858.69;5090279;28;20048;-79
2021/06/23 19:46:16;;;;;;;17.25;10.55;;;;;;;18.60;100.00;98863.25;5092187;28;20084;-79
2021/06/23 19:48:44;;;;;;;13.90;11.00;;;;;;;18.63;100.00;98893.03;5092433;28;20056;-79
2021/06/23 19:51:13;;;;;;;16.58;11.25;;;;;;;18.66;100.00;98898.06;5092292;28;20119;-79
2021/06/23 19:53:40;;;;;;;15.77;12.25;;;;;;;18.66;100.00;98901.63;5091759;28;20119;-79
2021/06/23 19:56:10;;;;;;;13.70;10.75;;;;;;;18.77;100.00;98910.09;5092337;28;20048;-80
2021/06/23 19:58:37;;;;;;;15.05;11.52;;;;;;;18.84;99.71;98913.56;5107847;28;20054;-79
2021/06/23 20:01:04;;;;;;;14.45;10.68;;;;;;;18.83;99.67;98918.22;5112324;28;20048;-80
2021/06/23 20:03:31;;;;;;;11.80;10.52;;;;;;;18.60;100.00;98921.88;5093506;28;20082;-80
2021/06/23 20:05:58;;;;;;;13.20;10.75;;;;;;;18.56;100.00;98926.19;5090538;28;20071;-80
2021/06/23 20:08:27;;;;;;;13.43;9.98;;;;;;;18.68;100.00;98938.03;5091860;28;20044;-79
2021/06/23 20:11:01;;;;;;;14.20;10.82;;;;;;;18.44;100.00;98961.16;5092268;28;20463;-79
2021/06/23 20:13:28;;;;;;;16.52;11.27;;;;;;;18.49;100.00;98984.16;5091701;28;20496;-79
2021/06/23 20:15:55;;;;;;;13.00;10.55;;;;;;;18.39;100.00;98967.41;5102859;28;20471;-79
2021/06/23 20:18:22;;;;;;;12.55;10.50;;;;;;;18.47;100.00;98964.28;5102391;28;20051;-79
2021/06/23 20:20:49;;;;;;;13.35;10.48;;;;;;;18.53;100.00;98956.97;5090998;28;20048;-79
2021/06/23 20:23:16;;;;;;;12.70;10.82;;;;;;;18.52;100.00;98964.41;5090859;28;20059;-79
2021/06/23 20:25:44;;;;;;;15.32;10.73;;;;;;;18.54;100.00;98969.66;5095248;28;20544;-79
2021/06/23 20:28:11;;;;;;;14.60;10.45;;;;;;;18.54;100.00;98983.41;5110670;28;20043;-77
2021/06/23 20:30:39;;;;;;;13.95;10.85;;;;;;;18.58;100.00;99018.47;5091399;28;20048;-78
2021/06/23 20:33:06;;;;;;;18.38;11.32;;;;;;;18.35;100.00;99008.34;5091476;28;20051;-79
2021/06/23 20:35:33;;;;;;;15.52;11.77;;;;;;;18.44;100.00;99021.72;5090567;28;20142;-79
2021/06/23 20:38:00;;;;;;;18.63;12.07;;;;;;;18.55;100.00;99013.47;5088633;28;20078;-78
2021/06/23 20:40:27;;;;;;;20.83;11.68;;;;;;;18.49;100.00;99010.84;5091028;28;20379;-80
2021/06/23 20:42:55;;;;;;;16.02;11.57;;;;;;;18.55;100.00;99010.69;5094734;28;20080;-80
2021/06/23 20:45:40;;;;;;;15.90;11.85;;;;;;;18.64;100.00;99011.19;5090067;28;20406;-81
2021/06/23 20:48:09;;;;;;;18.33;11.38;;;;;;;18.55;100.00;98990.59;5095762;28;20109;-78
2021/06/23 20:50:36;;;;;;;14.77;11.80;;;;;;;18.46;100.00;99006.66;5091577;28;20052;-80
2021/06/23 20:53:04;;;;;;;17.15;11.57;;;;;;;18.38;100.00;98999.59;5089568;28;20298;-79
2021/06/23 20:55:32;;;;;;;20.63;11.90;;;;;;;18.39;100.00;99006.75;5091921;28;20047;-78
2021/06/23 20:58:01;;;;;;;18.50;11.82;;;;;;;18.24;100.00;99006.41;5091480;28;20392;-78
2021/06/23 21:00:36;;;;;;;14.45;10.20;;;;;;;18.37;100.00;99008.91;5082486;28;20052;-78
2021/06/23 21:03:05;;;;;;;14.10;10.82;;;;;;;18.45;100.00;99026.97;5071383;28;20056;-80
2021/06/23 21:05:34;;;;;;;15.32;11.73;;;;;;;18.41;100.00;99025.78;5075950;28;20075;-79
2021/06/23 21:08:02;;;;;;;17.15;11.80;;;;;;;18.45;100.00;99043.50;5090018;28;20047;-80
2021/06/23 21:10:32;;;;;;;16.63;11.73;;;;;;;18.38;100.00;99059.28;5096945;28;20492;-79
2021/06/23 21:13:02;;;;;;;15.52;11.77;;;;;;;18.37;100.00;99065.88;5090664;28;20048;-80
2021/06/23 21:15:30;;;;;;;19.17;11.93;;;;;;;18.37;100.00;99077.72;5097160;28;20047;-79
2021/06/23 21:18:14;;;;;;;15.48;12.07;;;;;;;18.34;100.00;99069.13;5095346;28;20048;-78